Main page
METAR-TAF:

METAR-TAF

Airports :

Valencia Airport

Valencia, Spain

latitude: 39-30N, longitude: 000-28W, elevation: 69 m

Current weather observation

The report was made 13 minutes ago, at 22:00 UTC
Wind 3 kt from the Southeast
Temperature 16°C
Humidity 88%
Pressure 1016 hPa
Visibility 10 km or more
no clouds below 1500 m and no cumulonimbus

METAR: LEVC 052200Z 13003KT CAVOK 16/14 Q1016 NOSIG

Time: 00:13 (22:13 UTC)

Forecast

The report was made 5 hours and 13 minutes ago, at 17:00 UTC
Forecast valid from 05 at 18 UTC to 06 at 18 UTC
Wind 10 kt from the East
Visibility 10 km or more
Few clouds at a height of 3000 ft
Becoming
from 05 at 18 UTC to 05 at 21 UTC
Wind 4 kt from variable directions
Becoming
from 06 at 10 UTC to 06 at 12 UTC
Wind 10 kt from the East/Southeast

TAF: LEVC 051700Z 0518/0618 09010KT 9999 FEW030 TX24/0612Z TN11/0606Z BECMG 0518/0521 VRB04KT BECMG 0610/0612 11010KT

Weather observations and forecasts of more than 4000 airports (METAR and TAF reports).

The available stations are represented by yellow and red dots on the map.

Hover mouse over dot to see the name of the station.

Then click to see weather observations and forecasts.

To change the map : click on the green buttons with a black cross to zoom in, on the green button with a dash to zoom out, or on the green arrows for adjacent maps.


METAR-TAF: